首页
METAR-TAF:

METAR-TAF

机场 :

Olivia Regional Airport

Olivia, 明尼蘇達州, 美国

纬度: 44-46-43N, 经度: 095-01-58W, 海拔: 328米

当前天气观测

该预报发布于43分钟前的09:59 UTC
静风
温度 -5°C
湿度 100%
气压 1024 hPa
能見度: 11.3公里
天空无云

METAR: KOVL 150959Z AUTO 00000KT 7SM CLR M05/M05 A3024 RMK AO2

时间: 04:42 (10:42 UTC)


TAF: 丢失

超过4000个机场的气象观测和天气预报(METAR&TAF报告)。

可查询的气象台以黄色和红色小点在地图上表示。

将鼠标移到小点上方,可查看气象台名称。

然后点击查看天气观测和预报。

如需切换地图:点击带黑十字的绿色按钮放大地图;点击带横线的绿色按钮缩小地图;或者点击绿色箭头查看邻近地区的地图。


METAR-TAF: